sensor_id;sensor_type;location;lat;lon;timestamp;temperature;humidity
6654;DHT22;3363;50.942;7.034;2022-11-15T00:01:15;8.90;99.90
6654;DHT22;3363;50.942;7.034;2022-11-15T00:03:43;9.10;99.90
6654;DHT22;3363;50.942;7.034;2022-11-15T00:06:10;9.10;99.90
6654;DHT22;3363;50.942;7.034;2022-11-15T00:08:38;9.20;99.90
6654;DHT22;3363;50.942;7.034;2022-11-15T00:11:05;9.20;99.90
6654;DHT22;3363;50.942;7.034;2022-11-15T00:13:32;9.20;99.90
6654;DHT22;3363;50.942;7.034;2022-11-15T00:16:00;9.30;99.90
6654;DHT22;3363;50.942;7.034;2022-11-15T00:18:28;9.30;99.90
6654;DHT22;3363;50.942;7.034;2022-11-15T00:20:55;9.30;99.90
6654;DHT22;3363;50.942;7.034;2022-11-15T00:23:22;9.30;99.90
6654;DHT22;3363;50.942;7.034;2022-11-15T00:25:56;9.30;99.90
6654;DHT22;3363;50.942;7.034;2022-11-15T00:28:24;9.20;99.90
6654;DHT22;3363;50.942;7.034;2022-11-15T00:30:51;9.20;99.90
6654;DHT22;3363;50.942;7.034;2022-11-15T00:33:18;9.30;99.90
6654;DHT22;3363;50.942;7.034;2022-11-15T00:35:45;9.30;99.90
6654;DHT22;3363;50.942;7.034;2022-11-15T00:38:12;9.50;99.90
6654;DHT22;3363;50.942;7.034;2022-11-15T00:40:39;9.50;99.90
6654;DHT22;3363;50.942;7.034;2022-11-15T00:43:07;9.30;99.90
6654;DHT22;3363;50.942;7.034;2022-11-15T00:45:33;9.40;99.90
6654;DHT22;3363;50.942;7.034;2022-11-15T00:48:00;9.60;99.90
6654;DHT22;3363;50.942;7.034;2022-11-15T00:50:27;9.60;99.90
6654;DHT22;3363;50.942;7.034;2022-11-15T00:52:54;9.50;99.90
6654;DHT22;3363;50.942;7.034;2022-11-15T00:55:21;9.60;99.90
6654;DHT22;3363;50.942;7.034;2022-11-15T00:57:48;9.50;99.90
6654;DHT22;3363;50.942;7.034;2022-11-15T01:00:17;9.60;99.90
6654;DHT22;3363;50.942;7.034;2022-11-15T01:02:43;9.60;99.90
6654;DHT22;3363;50.942;7.034;2022-11-15T01:05:10;9.70;99.90
6654;DHT22;3363;50.942;7.034;2022-11-15T01:07:37;9.50;99.90
6654;DHT22;3363;50.942;7.034;2022-11-15T01:10:05;9.70;99.90
6654;DHT22;3363;50.942;7.034;2022-11-15T01:12:32;9.60;99.90
6654;DHT22;3363;50.942;7.034;2022-11-15T01:14:59;9.80;99.90
6654;DHT22;3363;50.942;7.034;2022-11-15T01:17:27;9.90;99.90
6654;DHT22;3363;50.942;7.034;2022-11-15T01:19:54;9.90;99.90
6654;DHT22;3363;50.942;7.034;2022-11-15T01:22:21;9.80;99.90
6654;DHT22;3363;50.942;7.034;2022-11-15T01:24:49;9.80;99.90
6654;DHT22;3363;50.942;7.034;2022-11-15T01:27:16;9.80;99.90
6654;DHT22;3363;50.942;7.034;2022-11-15T01:29:43;9.70;99.90
6654;DHT22;3363;50.942;7.034;2022-11-15T01:32:10;10.00;99.90
6654;DHT22;3363;50.942;7.034;2022-11-15T01:34:38;10.10;99.90
6654;DHT22;3363;50.942;7.034;2022-11-15T01:37:05;10.00;99.90
6654;DHT22;3363;50.942;7.034;2022-11-15T01:39:31;10.10;99.90
6654;DHT22;3363;50.942;7.034;2022-11-15T01:41:58;10.10;99.90
6654;DHT22;3363;50.942;7.034;2022-11-15T01:44:39;9.90;99.90
6654;DHT22;3363;50.942;7.034;2022-11-15T01:47:09;10.00;99.90
6654;DHT22;3363;50.942;7.034;2022-11-15T01:49:52;10.10;99.90
6654;DHT22;3363;50.942;7.034;2022-11-15T01:52:23;10.00;99.90
6654;DHT22;3363;50.942;7.034;2022-11-15T01:54:54;10.10;99.90
6654;DHT22;3363;50.942;7.034;2022-11-15T01:57:22;10.20;99.90
6654;DHT22;3363;50.942;7.034;2022-11-15T01:59:49;10.20;99.90
6654;DHT22;3363;50.942;7.034;2022-11-15T02:02:16;10.10;99.90
6654;DHT22;3363;50.942;7.034;2022-11-15T02:04:45;10.00;99.90
6654;DHT22;3363;50.942;7.034;2022-11-15T02:07:15;10.10;99.90
6654;DHT22;3363;50.942;7.034;2022-11-15T02:09:43;9.90;99.90
6654;DHT22;3363;50.942;7.034;2022-11-15T02:12:12;9.90;99.90
6654;DHT22;3363;50.942;7.034;2022-11-15T02:14:41;9.70;99.90
6654;DHT22;3363;50.942;7.034;2022-11-15T02:17:21;9.90;99.90
6654;DHT22;3363;50.942;7.034;2022-11-15T02:23:27;10.00;99.90
6654;DHT22;3363;50.942;7.034;2022-11-15T02:26:09;10.10;99.90
6654;DHT22;3363;50.942;7.034;2022-11-15T02:28:48;10.10;99.90
6654;DHT22;3363;50.942;7.034;2022-11-15T02:31:25;10.00;99.90
6654;DHT22;3363;50.942;7.034;2022-11-15T02:34:01;10.10;99.90
6654;DHT22;3363;50.942;7.034;2022-11-15T02:36:39;10.00;99.90
6654;DHT22;3363;50.942;7.034;2022-11-15T02:39:13;10.20;99.90
6654;DHT22;3363;50.942;7.034;2022-11-15T02:41:45;10.20;99.90
6654;DHT22;3363;50.942;7.034;2022-11-15T02:44:17;9.80;99.90
6654;DHT22;3363;50.942;7.034;2022-11-15T02:46:48;10.10;99.90
6654;DHT22;3363;50.942;7.034;2022-11-15T02:49:34;10.00;99.90
6654;DHT22;3363;50.942;7.034;2022-11-15T02:52:02;9.90;99.90
6654;DHT22;3363;50.942;7.034;2022-11-15T02:54:30;9.80;99.90
6654;DHT22;3363;50.942;7.034;2022-11-15T02:57:01;10.00;99.90
6654;DHT22;3363;50.942;7.034;2022-11-15T02:59:51;10.10;99.90
6654;DHT22;3363;50.942;7.034;2022-11-15T03:05:19;10.00;99.90
6654;DHT22;3363;50.942;7.034;2022-11-15T03:07:53;9.90;99.90
6654;DHT22;3363;50.942;7.034;2022-11-15T03:10:26;10.00;99.90
6654;DHT22;3363;50.942;7.034;2022-11-15T03:12:57;10.00;99.90
6654;DHT22;3363;50.942;7.034;2022-11-15T03:15:28;10.30;99.90
6654;DHT22;3363;50.942;7.034;2022-11-15T03:18:00;10.10;99.90
6654;DHT22;3363;50.942;7.034;2022-11-15T03:20:28;10.10;99.90
6654;DHT22;3363;50.942;7.034;2022-11-15T03:23:00;10.00;99.90
6654;DHT22;3363;50.942;7.034;2022-11-15T03:25:29;10.30;99.90
6654;DHT22;3363;50.942;7.034;2022-11-15T03:28:02;10.20;99.90
6654;DHT22;3363;50.942;7.034;2022-11-15T03:30:31;10.00;99.90
6654;DHT22;3363;50.942;7.034;2022-11-15T03:33:00;10.00;99.90
6654;DHT22;3363;50.942;7.034;2022-11-15T03:35:31;10.20;99.90
6654;DHT22;3363;50.942;7.034;2022-11-15T03:38:05;10.00;99.90
6654;DHT22;3363;50.942;7.034;2022-11-15T03:40:37;10.20;99.90
6654;DHT22;3363;50.942;7.034;2022-11-15T03:43:08;10.20;99.90
6654;DHT22;3363;50.942;7.034;2022-11-15T03:45:41;10.30;99.90
6654;DHT22;3363;50.942;7.034;2022-11-15T03:48:14;10.10;99.90
6654;DHT22;3363;50.942;7.034;2022-11-15T03:50:43;10.20;99.90
6654;DHT22;3363;50.942;7.034;2022-11-15T03:53:12;10.50;99.90
6654;DHT22;3363;50.942;7.034;2022-11-15T03:55:39;10.60;99.90
6654;DHT22;3363;50.942;7.034;2022-11-15T03:58:06;10.40;99.90
6654;DHT22;3363;50.942;7.034;2022-11-15T04:00:33;10.30;99.90
6654;DHT22;3363;50.942;7.034;2022-11-15T04:03:00;10.60;99.90
6654;DHT22;3363;50.942;7.034;2022-11-15T04:05:29;10.60;99.90
6654;DHT22;3363;50.942;7.034;2022-11-15T04:07:56;10.40;99.90
6654;DHT22;3363;50.942;7.034;2022-11-15T04:10:22;10.50;99.90
6654;DHT22;3363;50.942;7.034;2022-11-15T04:12:49;10.30;99.90
6654;DHT22;3363;50.942;7.034;2022-11-15T04:15:18;10.30;99.90
6654;DHT22;3363;50.942;7.034;2022-11-15T04:17:46;10.50;99.90
6654;DHT22;3363;50.942;7.034;2022-11-15T04:20:15;10.60;99.90
6654;DHT22;3363;50.942;7.034;2022-11-15T04:23:03;10.40;99.90
6654;DHT22;3363;50.942;7.034;2022-11-15T04:25:51;10.30;99.90
6654;DHT22;3363;50.942;7.034;2022-11-15T04:28:18;10.10;99.90
6654;DHT22;3363;50.942;7.034;2022-11-15T04:30:45;10.10;99.90
6654;DHT22;3363;50.942;7.034;2022-11-15T04:33:12;10.20;99.90
6654;DHT22;3363;50.942;7.034;2022-11-15T04:35:39;10.40;99.90
6654;DHT22;3363;50.942;7.034;2022-11-15T04:38:09;10.40;99.90
6654;DHT22;3363;50.942;7.034;2022-11-15T04:40:35;10.40;99.90
6654;DHT22;3363;50.942;7.034;2022-11-15T04:43:03;10.50;99.90
6654;DHT22;3363;50.942;7.034;2022-11-15T04:45:30;10.40;99.90
6654;DHT22;3363;50.942;7.034;2022-11-15T04:47:56;10.40;99.90
6654;DHT22;3363;50.942;7.034;2022-11-15T04:50:23;10.40;99.90
6654;DHT22;3363;50.942;7.034;2022-11-15T04:52:52;10.50;99.90
6654;DHT22;3363;50.942;7.034;2022-11-15T04:55:21;10.40;99.90
6654;DHT22;3363;50.942;7.034;2022-11-15T04:57:48;10.60;99.90
6654;DHT22;3363;50.942;7.034;2022-11-15T05:00:23;10.60;99.90
6654;DHT22;3363;50.942;7.034;2022-11-15T05:02:50;10.40;99.90
6654;DHT22;3363;50.942;7.034;2022-11-15T05:05:34;10.40;99.90
6654;DHT22;3363;50.942;7.034;2022-11-15T05:08:01;10.40;99.90
6654;DHT22;3363;50.942;7.034;2022-11-15T05:10:30;10.30;99.90
6654;DHT22;3363;50.942;7.034;2022-11-15T05:12:56;10.30;99.90
6654;DHT22;3363;50.942;7.034;2022-11-15T05:15:23;10.50;99.90
6654;DHT22;3363;50.942;7.034;2022-11-15T05:17:50;10.40;99.90
6654;DHT22;3363;50.942;7.034;2022-11-15T05:20:17;10.50;99.90
6654;DHT22;3363;50.942;7.034;2022-11-15T05:22:44;10.40;99.90
6654;DHT22;3363;50.942;7.034;2022-11-15T05:25:11;10.30;99.90
6654;DHT22;3363;50.942;7.034;2022-11-15T05:27:39;10.60;99.90
6654;DHT22;3363;50.942;7.034;2022-11-15T05:30:07;10.70;99.90
6654;DHT22;3363;50.942;7.034;2022-11-15T05:32:34;10.60;99.90
6654;DHT22;3363;50.942;7.034;2022-11-15T05:35:00;10.60;99.90
6654;DHT22;3363;50.942;7.034;2022-11-15T05:37:28;10.30;99.90
6654;DHT22;3363;50.942;7.034;2022-11-15T05:39:55;10.60;99.90
6654;DHT22;3363;50.942;7.034;2022-11-15T05:42:22;10.60;99.90
6654;DHT22;3363;50.942;7.034;2022-11-15T05:44:50;10.50;99.90
6654;DHT22;3363;50.942;7.034;2022-11-15T05:47:21;10.50;99.90
6654;DHT22;3363;50.942;7.034;2022-11-15T05:49:50;10.50;99.90
6654;DHT22;3363;50.942;7.034;2022-11-15T05:52:31;10.50;99.90
6654;DHT22;3363;50.942;7.034;2022-11-15T05:55:03;10.40;99.90
6654;DHT22;3363;50.942;7.034;2022-11-15T05:57:36;10.40;99.90
6654;DHT22;3363;50.942;7.034;2022-11-15T06:00:05;10.40;99.90
6654;DHT22;3363;50.942;7.034;2022-11-15T06:02:35;10.30;99.90
6654;DHT22;3363;50.942;7.034;2022-11-15T06:05:02;10.30;99.90
6654;DHT22;3363;50.942;7.034;2022-11-15T06:07:29;10.30;99.90
6654;DHT22;3363;50.942;7.034;2022-11-15T06:09:56;10.20;99.90
6654;DHT22;3363;50.942;7.034;2022-11-15T06:12:23;10.30;99.90
6654;DHT22;3363;50.942;7.034;2022-11-15T06:14:50;10.20;99.90
6654;DHT22;3363;50.942;7.034;2022-11-15T06:17:18;10.10;99.90
6654;DHT22;3363;50.942;7.034;2022-11-15T06:19:45;10.10;99.90
6654;DHT22;3363;50.942;7.034;2022-11-15T06:22:12;10.10;99.90
6654;DHT22;3363;50.942;7.034;2022-11-15T06:24:39;10.10;99.90
6654;DHT22;3363;50.942;7.034;2022-11-15T06:27:05;10.20;99.90
6654;DHT22;3363;50.942;7.034;2022-11-15T06:29:32;10.20;99.90
6654;DHT22;3363;50.942;7.034;2022-11-15T06:31:59;10.30;99.90
6654;DHT22;3363;50.942;7.034;2022-11-15T06:34:28;10.30;99.90
6654;DHT22;3363;50.942;7.034;2022-11-15T06:36:55;10.30;99.90
6654;DHT22;3363;50.942;7.034;2022-11-15T06:39:22;10.20;99.90
6654;DHT22;3363;50.942;7.034;2022-11-15T06:41:49;10.30;99.90
6654;DHT22;3363;50.942;7.034;2022-11-15T06:44:16;10.30;99.90
6654;DHT22;3363;50.942;7.034;2022-11-15T06:46:43;10.40;99.90
6654;DHT22;3363;50.942;7.034;2022-11-15T06:49:09;10.20;99.90
6654;DHT22;3363;50.942;7.034;2022-11-15T06:51:39;10.50;99.90
6654;DHT22;3363;50.942;7.034;2022-11-15T06:54:05;10.30;99.90
6654;DHT22;3363;50.942;7.034;2022-11-15T06:56:33;10.30;99.90
6654;DHT22;3363;50.942;7.034;2022-11-15T06:59:00;10.20;99.90
6654;DHT22;3363;50.942;7.034;2022-11-15T07:01:27;10.20;99.90
6654;DHT22;3363;50.942;7.034;2022-11-15T07:03:54;10.20;99.90
6654;DHT22;3363;50.942;7.034;2022-11-15T07:06:21;10.20;99.90
6654;DHT22;3363;50.942;7.034;2022-11-15T07:08:49;10.20;99.90
6654;DHT22;3363;50.942;7.034;2022-11-15T07:11:16;10.10;99.90
6654;DHT22;3363;50.942;7.034;2022-11-15T07:13:42;10.10;99.90
6654;DHT22;3363;50.942;7.034;2022-11-15T07:16:10;10.10;99.90
6654;DHT22;3363;50.942;7.034;2022-11-15T07:18:39;10.00;99.90
6654;DHT22;3363;50.942;7.034;2022-11-15T07:21:07;10.00;99.90
6654;DHT22;3363;50.942;7.034;2022-11-15T07:23:36;10.10;99.90
6654;DHT22;3363;50.942;7.034;2022-11-15T07:26:05;10.10;99.90
6654;DHT22;3363;50.942;7.034;2022-11-15T07:28:32;10.10;99.90
6654;DHT22;3363;50.942;7.034;2022-11-15T07:31:02;10.00;99.90
6654;DHT22;3363;50.942;7.034;2022-11-15T07:33:29;10.00;99.90
6654;DHT22;3363;50.942;7.034;2022-11-15T07:35:59;10.10;99.90
6654;DHT22;3363;50.942;7.034;2022-11-15T07:38:27;10.00;99.90
6654;DHT22;3363;50.942;7.034;2022-11-15T07:40:56;9.90;99.90
6654;DHT22;3363;50.942;7.034;2022-11-15T07:43:25;9.90;99.90
6654;DHT22;3363;50.942;7.034;2022-11-15T07:45:53;9.90;99.90
6654;DHT22;3363;50.942;7.034;2022-11-15T07:48:20;9.90;99.90
6654;DHT22;3363;50.942;7.034;2022-11-15T07:50:47;10.00;99.90
6654;DHT22;3363;50.942;7.034;2022-11-15T07:53:14;10.00;99.90
6654;DHT22;3363;50.942;7.034;2022-11-15T07:55:41;10.00;99.90
6654;DHT22;3363;50.942;7.034;2022-11-15T07:58:10;10.00;99.90
6654;DHT22;3363;50.942;7.034;2022-11-15T08:00:38;10.00;99.90
6654;DHT22;3363;50.942;7.034;2022-11-15T08:03:07;10.00;99.90
6654;DHT22;3363;50.942;7.034;2022-11-15T08:05:35;10.10;99.90
6654;DHT22;3363;50.942;7.034;2022-11-15T08:08:02;10.00;99.90
6654;DHT22;3363;50.942;7.034;2022-11-15T08:10:29;10.00;99.90
6654;DHT22;3363;50.942;7.034;2022-11-15T08:13:00;10.10;99.90
6654;DHT22;3363;50.942;7.034;2022-11-15T08:15:28;10.10;99.90
6654;DHT22;3363;50.942;7.034;2022-11-15T08:17:57;10.20;99.90
6654;DHT22;3363;50.942;7.034;2022-11-15T08:20:25;10.20;99.90
6654;DHT22;3363;50.942;7.034;2022-11-15T08:22:55;10.20;99.90
6654;DHT22;3363;50.942;7.034;2022-11-15T08:25:21;10.30;99.90
6654;DHT22;3363;50.942;7.034;2022-11-15T08:27:51;10.20;99.90
6654;DHT22;3363;50.942;7.034;2022-11-15T08:30:18;10.30;99.90
6654;DHT22;3363;50.942;7.034;2022-11-15T08:32:45;10.30;99.90
6654;DHT22;3363;50.942;7.034;2022-11-15T08:35:14;10.30;99.90
6654;DHT22;3363;50.942;7.034;2022-11-15T08:37:41;10.20;99.90
6654;DHT22;3363;50.942;7.034;2022-11-15T08:40:08;10.30;99.90
6654;DHT22;3363;50.942;7.034;2022-11-15T08:42:36;10.30;99.90
6654;DHT22;3363;50.942;7.034;2022-11-15T08:45:03;10.30;99.90
6654;DHT22;3363;50.942;7.034;2022-11-15T08:47:30;10.40;99.90
6654;DHT22;3363;50.942;7.034;2022-11-15T08:49:57;10.50;99.90
6654;DHT22;3363;50.942;7.034;2022-11-15T08:52:25;10.40;99.90
6654;DHT22;3363;50.942;7.034;2022-11-15T08:54:52;10.30;99.90
6654;DHT22;3363;50.942;7.034;2022-11-15T08:57:19;10.30;99.90
6654;DHT22;3363;50.942;7.034;2022-11-15T08:59:46;10.50;99.90
6654;DHT22;3363;50.942;7.034;2022-11-15T09:02:13;10.50;99.90
6654;DHT22;3363;50.942;7.034;2022-11-15T09:04:40;10.60;99.90
6654;DHT22;3363;50.942;7.034;2022-11-15T09:07:08;10.60;99.90
6654;DHT22;3363;50.942;7.034;2022-11-15T09:09:36;10.70;99.90
6654;DHT22;3363;50.942;7.034;2022-11-15T09:12:04;10.80;99.90
6654;DHT22;3363;50.942;7.034;2022-11-15T09:14:31;10.70;99.90
6654;DHT22;3363;50.942;7.034;2022-11-15T09:16:58;10.70;99.90
6654;DHT22;3363;50.942;7.034;2022-11-15T09:19:25;10.90;99.90
6654;DHT22;3363;50.942;7.034;2022-11-15T09:21:52;10.80;99.90
6654;DHT22;3363;50.942;7.034;2022-11-15T09:24:20;10.90;99.90
6654;DHT22;3363;50.942;7.034;2022-11-15T09:26:49;10.90;99.90
6654;DHT22;3363;50.942;7.034;2022-11-15T09:29:16;11.00;99.90
6654;DHT22;3363;50.942;7.034;2022-11-15T09:31:43;11.10;99.90
6654;DHT22;3363;50.942;7.034;2022-11-15T09:34:10;11.20;99.90
6654;DHT22;3363;50.942;7.034;2022-11-15T09:36:37;11.20;99.90
6654;DHT22;3363;50.942;7.034;2022-11-15T09:39:04;11.40;99.90
6654;DHT22;3363;50.942;7.034;2022-11-15T09:41:55;11.40;99.90
6654;DHT22;3363;50.942;7.034;2022-11-15T09:44:37;11.50;99.90
6654;DHT22;3363;50.942;7.034;2022-11-15T09:47:19;11.50;99.90
6654;DHT22;3363;50.942;7.034;2022-11-15T09:49:53;11.50;99.90
6654;DHT22;3363;50.942;7.034;2022-11-15T09:52:21;11.60;99.90
6654;DHT22;3363;50.942;7.034;2022-11-15T09:54:49;11.60;99.90
6654;DHT22;3363;50.942;7.034;2022-11-15T09:57:20;11.60;99.90
6654;DHT22;3363;50.942;7.034;2022-11-15T10:00:02;11.70;99.90
6654;DHT22;3363;50.942;7.034;2022-11-15T10:02:40;11.60;99.90
6654;DHT22;3363;50.942;7.034;2022-11-15T10:05:11;11.60;99.90
6654;DHT22;3363;50.942;7.034;2022-11-15T10:07:46;11.60;99.90
6654;DHT22;3363;50.942;7.034;2022-11-15T10:10:20;11.60;99.90
6654;DHT22;3363;50.942;7.034;2022-11-15T10:12:51;11.60;97.30
6654;DHT22;3363;50.942;7.034;2022-11-15T10:15:19;11.80;99.90
6654;DHT22;3363;50.942;7.034;2022-11-15T10:18:15;11.90;98.50
6654;DHT22;3363;50.942;7.034;2022-11-15T10:20:48;12.00;97.40
6654;DHT22;3363;50.942;7.034;2022-11-15T10:23:17;12.00;95.10
6654;DHT22;3363;50.942;7.034;2022-11-15T10:25:45;12.10;92.20
6654;DHT22;3363;50.942;7.034;2022-11-15T10:28:15;12.10;90.40
6654;DHT22;3363;50.942;7.034;2022-11-15T10:30:44;12.10;90.50
6654;DHT22;3363;50.942;7.034;2022-11-15T10:33:20;12.10;90.10
6654;DHT22;3363;50.942;7.034;2022-11-15T10:36:19;12.20;82.60
6654;DHT22;3363;50.942;7.034;2022-11-15T10:38:54;12.10;81.50
6654;DHT22;3363;50.942;7.034;2022-11-15T10:41:28;12.10;78.30
6654;DHT22;3363;50.942;7.034;2022-11-15T10:44:20;12.20;79.20
6654;DHT22;3363;50.942;7.034;2022-11-15T10:46:48;12.20;78.40
6654;DHT22;3363;50.942;7.034;2022-11-15T10:49:31;12.10;71.40
6654;DHT22;3363;50.942;7.034;2022-11-15T10:52:00;12.20;74.40
6654;DHT22;3363;50.942;7.034;2022-11-15T10:54:29;12.10;76.70
6654;DHT22;3363;50.942;7.034;2022-11-15T10:56:59;12.10;71.00
6654;DHT22;3363;50.942;7.034;2022-11-15T10:59:29;12.10;73.70
6654;DHT22;3363;50.942;7.034;2022-11-15T11:01:57;12.10;71.10
6654;DHT22;3363;50.942;7.034;2022-11-15T11:04:24;11.90;74.80
6654;DHT22;3363;50.942;7.034;2022-11-15T11:06:52;11.90;71.90
6654;DHT22;3363;50.942;7.034;2022-11-15T11:09:27;11.90;71.00
6654;DHT22;3363;50.942;7.034;2022-11-15T11:11:55;11.80;73.50
6654;DHT22;3363;50.942;7.034;2022-11-15T11:14:25;11.80;73.20
6654;DHT22;3363;50.942;7.034;2022-11-15T11:16:56;11.90;70.90
6654;DHT22;3363;50.942;7.034;2022-11-15T11:19:52;11.80;70.20
6654;DHT22;3363;50.942;7.034;2022-11-15T11:22:26;12.20;72.40
6654;DHT22;3363;50.942;7.034;2022-11-15T11:25:07;12.00;72.10
6654;DHT22;3363;50.942;7.034;2022-11-15T11:27:43;11.90;71.10
6654;DHT22;3363;50.942;7.034;2022-11-15T11:30:13;12.10;70.60
6654;DHT22;3363;50.942;7.034;2022-11-15T11:33:02;12.00;67.10
6654;DHT22;3363;50.942;7.034;2022-11-15T11:35:36;12.10;71.00
6654;DHT22;3363;50.942;7.034;2022-11-15T11:41:09;11.80;73.00
6654;DHT22;3363;50.942;7.034;2022-11-15T11:43:41;11.90;72.60
6654;DHT22;3363;50.942;7.034;2022-11-15T11:46:30;12.00;66.90
6654;DHT22;3363;50.942;7.034;2022-11-15T11:49:06;12.30;66.80
6654;DHT22;3363;50.942;7.034;2022-11-15T11:51:39;12.20;66.50
6654;DHT22;3363;50.942;7.034;2022-11-15T11:54:12;12.20;68.70
6654;DHT22;3363;50.942;7.034;2022-11-15T11:56:41;12.30;71.40
6654;DHT22;3363;50.942;7.034;2022-11-15T11:59:18;12.20;68.80
6654;DHT22;3363;50.942;7.034;2022-11-15T12:01:45;12.10;71.80
6654;DHT22;3363;50.942;7.034;2022-11-15T12:04:17;12.00;71.00
6654;DHT22;3363;50.942;7.034;2022-11-15T12:06:49;12.10;71.40
6654;DHT22;3363;50.942;7.034;2022-11-15T12:09:21;12.20;70.20
6654;DHT22;3363;50.942;7.034;2022-11-15T12:11:55;12.30;71.90
6654;DHT22;3363;50.942;7.034;2022-11-15T12:14:31;12.20;72.90
6654;DHT22;3363;50.942;7.034;2022-11-15T12:16:58;12.20;73.40
6654;DHT22;3363;50.942;7.034;2022-11-15T12:19:28;12.30;70.20
6654;DHT22;3363;50.942;7.034;2022-11-15T12:22:00;12.30;73.70
6654;DHT22;3363;50.942;7.034;2022-11-15T12:24:31;12.30;72.50
6654;DHT22;3363;50.942;7.034;2022-11-15T12:27:05;12.30;73.80
6654;DHT22;3363;50.942;7.034;2022-11-15T12:29:36;12.40;72.60
6654;DHT22;3363;50.942;7.034;2022-11-15T12:32:05;12.50;68.00
6654;DHT22;3363;50.942;7.034;2022-11-15T12:34:44;12.50;71.20
6654;DHT22;3363;50.942;7.034;2022-11-15T12:40:24;12.30;71.50
6654;DHT22;3363;50.942;7.034;2022-11-15T12:43:00;12.40;71.20
6654;DHT22;3363;50.942;7.034;2022-11-15T12:45:30;12.40;72.40
6654;DHT22;3363;50.942;7.034;2022-11-15T12:48:48;12.40;72.80
6654;DHT22;3363;50.942;7.034;2022-11-15T12:51:19;12.40;74.20
6654;DHT22;3363;50.942;7.034;2022-11-15T12:53:46;12.50;73.10
6654;DHT22;3363;50.942;7.034;2022-11-15T12:56:21;12.50;73.10
6654;DHT22;3363;50.942;7.034;2022-11-15T12:58:51;12.60;74.70
6654;DHT22;3363;50.942;7.034;2022-11-15T13:01:57;12.40;77.00
6654;DHT22;3363;50.942;7.034;2022-11-15T13:04:27;12.40;75.50
6654;DHT22;3363;50.942;7.034;2022-11-15T13:06:57;12.60;75.50
6654;DHT22;3363;50.942;7.034;2022-11-15T13:09:52;12.50;76.30
6654;DHT22;3363;50.942;7.034;2022-11-15T13:12:48;12.40;77.10
6654;DHT22;3363;50.942;7.034;2022-11-15T13:15:33;12.30;78.70
6654;DHT22;3363;50.942;7.034;2022-11-15T13:18:27;12.20;80.30
6654;DHT22;3363;50.942;7.034;2022-11-15T13:20:54;12.30;79.10
6654;DHT22;3363;50.942;7.034;2022-11-15T13:23:23;12.40;79.00
6654;DHT22;3363;50.942;7.034;2022-11-15T13:26:11;12.50;80.20
6654;DHT22;3363;50.942;7.034;2022-11-15T13:28:43;12.40;80.20
6654;DHT22;3363;50.942;7.034;2022-11-15T13:31:24;12.40;80.90
6654;DHT22;3363;50.942;7.034;2022-11-15T13:33:53;12.60;80.40
6654;DHT22;3363;50.942;7.034;2022-11-15T13:36:23;12.60;78.60
6654;DHT22;3363;50.942;7.034;2022-11-15T13:38:57;12.50;79.50
6654;DHT22;3363;50.942;7.034;2022-11-15T13:41:26;12.50;79.20
6654;DHT22;3363;50.942;7.034;2022-11-15T13:43:54;12.60;79.50
6654;DHT22;3363;50.942;7.034;2022-11-15T13:46:23;12.60;81.10
6654;DHT22;3363;50.942;7.034;2022-11-15T13:48:56;12.60;80.20
6654;DHT22;3363;50.942;7.034;2022-11-15T13:51:35;12.60;80.80
6654;DHT22;3363;50.942;7.034;2022-11-15T13:54:12;12.50;81.00
6654;DHT22;3363;50.942;7.034;2022-11-15T13:56:42;12.50;82.10
6654;DHT22;3363;50.942;7.034;2022-11-15T13:59:10;12.40;82.50
6654;DHT22;3363;50.942;7.034;2022-11-15T14:01:41;12.30;82.80
6654;DHT22;3363;50.942;7.034;2022-11-15T14:04:11;12.60;81.10
6654;DHT22;3363;50.942;7.034;2022-11-15T14:06:45;12.60;82.30
6654;DHT22;3363;50.942;7.034;2022-11-15T14:09:47;12.50;83.70
6654;DHT22;3363;50.942;7.034;2022-11-15T14:12:30;12.50;83.40
6654;DHT22;3363;50.942;7.034;2022-11-15T14:14:59;12.50;81.00
6654;DHT22;3363;50.942;7.034;2022-11-15T14:17:37;12.40;82.90
6654;DHT22;3363;50.942;7.034;2022-11-15T14:20:26;12.40;84.70
6654;DHT22;3363;50.942;7.034;2022-11-15T14:22:54;12.50;83.90
6654;DHT22;3363;50.942;7.034;2022-11-15T14:25:22;12.60;84.30
6654;DHT22;3363;50.942;7.034;2022-11-15T14:28:12;12.60;85.30
6654;DHT22;3363;50.942;7.034;2022-11-15T14:30:40;12.60;82.40
6654;DHT22;3363;50.942;7.034;2022-11-15T14:33:19;12.50;82.60
6654;DHT22;3363;50.942;7.034;2022-11-15T14:35:48;12.40;84.40
6654;DHT22;3363;50.942;7.034;2022-11-15T14:38:15;12.40;87.10
6654;DHT22;3363;50.942;7.034;2022-11-15T14:40:42;12.40;86.20
6654;DHT22;3363;50.942;7.034;2022-11-15T14:43:11;12.30;88.50
6654;DHT22;3363;50.942;7.034;2022-11-15T14:45:39;12.50;90.10
6654;DHT22;3363;50.942;7.034;2022-11-15T14:48:06;12.40;86.70
6654;DHT22;3363;50.942;7.034;2022-11-15T14:50:34;12.50;84.30
6654;DHT22;3363;50.942;7.034;2022-11-15T14:53:01;12.50;86.00
6654;DHT22;3363;50.942;7.034;2022-11-15T14:55:30;12.50;86.00
6654;DHT22;3363;50.942;7.034;2022-11-15T14:57:59;12.40;88.40
6654;DHT22;3363;50.942;7.034;2022-11-15T15:00:29;12.40;86.60
6654;DHT22;3363;50.942;7.034;2022-11-15T15:02:56;12.30;87.10
6654;DHT22;3363;50.942;7.034;2022-11-15T15:05:25;12.40;87.70
6654;DHT22;3363;50.942;7.034;2022-11-15T15:07:52;12.40;88.30
6654;DHT22;3363;50.942;7.034;2022-11-15T15:10:19;12.30;89.10
6654;DHT22;3363;50.942;7.034;2022-11-15T15:12:46;12.30;87.30
6654;DHT22;3363;50.942;7.034;2022-11-15T15:15:14;12.40;88.30
6654;DHT22;3363;50.942;7.034;2022-11-15T15:17:43;12.40;88.90
6654;DHT22;3363;50.942;7.034;2022-11-15T15:20:10;12.30;90.80
6654;DHT22;3363;50.942;7.034;2022-11-15T15:22:37;12.40;88.60
6654;DHT22;3363;50.942;7.034;2022-11-15T15:25:20;12.30;89.70
6654;DHT22;3363;50.942;7.034;2022-11-15T15:27:47;12.30;89.10
6654;DHT22;3363;50.942;7.034;2022-11-15T15:30:14;12.30;89.80
6654;DHT22;3363;50.942;7.034;2022-11-15T15:32:40;12.30;88.50
6654;DHT22;3363;50.942;7.034;2022-11-15T15:35:11;12.30;88.60
6654;DHT22;3363;50.942;7.034;2022-11-15T15:37:39;12.30;89.30
6654;DHT22;3363;50.942;7.034;2022-11-15T15:40:11;12.40;89.70
6654;DHT22;3363;50.942;7.034;2022-11-15T15:42:39;12.40;90.10
6654;DHT22;3363;50.942;7.034;2022-11-15T15:45:07;12.30;91.40
6654;DHT22;3363;50.942;7.034;2022-11-15T15:47:34;12.30;92.70
6654;DHT22;3363;50.942;7.034;2022-11-15T15:50:02;12.20;92.00
6654;DHT22;3363;50.942;7.034;2022-11-15T15:52:30;12.20;91.80
6654;DHT22;3363;50.942;7.034;2022-11-15T15:54:57;12.20;92.70
6654;DHT22;3363;50.942;7.034;2022-11-15T15:57:24;12.20;91.60
6654;DHT22;3363;50.942;7.034;2022-11-15T15:59:51;12.20;91.90
6654;DHT22;3363;50.942;7.034;2022-11-15T16:02:18;12.20;93.20
6654;DHT22;3363;50.942;7.034;2022-11-15T16:04:44;12.10;92.60
6654;DHT22;3363;50.942;7.034;2022-11-15T16:07:17;12.10;93.20
6654;DHT22;3363;50.942;7.034;2022-11-15T16:09:50;12.10;93.30
6654;DHT22;3363;50.942;7.034;2022-11-15T16:12:30;12.20;93.80
6654;DHT22;3363;50.942;7.034;2022-11-15T16:14:57;12.10;93.00
6654;DHT22;3363;50.942;7.034;2022-11-15T16:17:26;12.20;93.00
6654;DHT22;3363;50.942;7.034;2022-11-15T16:19:53;12.20;93.10
6654;DHT22;3363;50.942;7.034;2022-11-15T16:22:20;12.20;92.10
6654;DHT22;3363;50.942;7.034;2022-11-15T16:24:47;12.20;93.10
6654;DHT22;3363;50.942;7.034;2022-11-15T16:27:18;12.20;92.70
6654;DHT22;3363;50.942;7.034;2022-11-15T16:29:45;12.20;92.70
6654;DHT22;3363;50.942;7.034;2022-11-15T16:32:13;12.30;91.90
6654;DHT22;3363;50.942;7.034;2022-11-15T16:34:40;12.40;92.10
6654;DHT22;3363;50.942;7.034;2022-11-15T16:37:15;12.40;92.30
6654;DHT22;3363;50.942;7.034;2022-11-15T16:39:46;12.40;91.60